Ingram, TX (78025)

8:57 PM CDT on March 28, 2017 (GMT -0500)
Rancho El Rincon | | Change Station

Elev 1736 ft 30.05 °N, 99.24 °W | Updated 2 minutes ago

Partly Cloudy
Partly Cloudy
71.4 °F
Feels Like 75 °F
N
3.0
Wind Variable Wind from East
Gusts 9.0 mph

Today
High -- | Low -- °F
--% Chance of Precip.
Yesterday
High -- | Low -- °F
Precip. -- in
Pressure 29.66 in
Visibility 10.0 miles
Clouds Scattered Clouds 5000 ft
Heat Index 75 °F
Dew Point 59 °F
Humidity 66%
Rainfall 0.00 in
Snow Depth Not available.
7:30 AM 7:53 PM
New Moon, 1% visible
METAR KERV 290135Z AUTO 13013KT 10SM SCT050 23/15 A2966 RMK AO2 T02260149
Pressure 29.66 in
Visibility 10.0 miles
Clouds Scattered Clouds 5000 ft
Heat Index 75 °F
Dew Point 59 °F
Humidity 66%
Rainfall 0.00 in
Snow Depth Not available.
7:30 AM 7:53 PM
New Moon, 1% visible
METAR KERV 290135Z AUTO 13013KT 10SM SCT050 23/15 A2966 RMK AO2 T02260149

Get Severe Weather Alerts

Thanks for signing up!

Be on the lookout for a verification email in your inbox.

You'll start receiving the daily forecast at 8 AM.

×

10-Day Weather Forecast

Almanac

Astronomy

Mar. 28, 2017 Rise Set
Actual Time
Civil Twilight
Nautical Twilight
Astronomical Twilight
Moon
Length of Visible Light
Length of Day
Tomorrow will be .
, % of the Moon is Illuminated

Today's Extremes

State Highs State Lows

Community

WunderPhotos

Upload Photos

1,962,540 photos uploaded!

WunderBlog® & News

Nearby

Air Quality

  Air Quality AQ Index Pollutant
Not available.

Snow Depth

Station Depth Elevation

Earthquake Activity

City Distance Mag. Time & Date
Minimum magnitude displayed is 2.5.

Earthquake Activity

City Distance Mag. Time & Date
Minimum magnitude displayed is 2.5.

Coastal Water Temperatures

Place Temperature

Stations

Nearby Weather Stations

Station Location Temp. Windchill Dew Point Humidity Wind Precip. Elev Updated Type
                   

Watches & Warnings

There are currently no watches in effect.